Time;durP1;ratioP1;P1;durP2;ratioP2;P2;SDS_P1;SDS_P2;PMS_P1;PMS_P2;Temp;Humidity;BMP_temperature;BMP_pressure;BME280_temperature;BME280_humidity;BME280_pressure;Samples;Min_cycle;Max_cycle;Signal;HPM_P1;HPM_P2
2022/06/05 00:00:21;;;;;;;5.75;1.23;;;24.10;99.90;;;;;;4992835;28;20060;-49
2022/06/05 00:02:55;;;;;;;4.93;1.17;;;24.10;99.90;;;;;;4992349;28;20470;-50
2022/06/05 00:05:30;;;;;;;4.18;0.90;;;24.10;99.90;;;;;;4992385;28;20378;-49
2022/06/05 00:08:18;;;;;;;3.30;0.90;;;24.10;99.90;;;;;;4992309;28;20455;-49
2022/06/05 00:10:58;;;;;;;4.22;1.23;;;24.10;99.90;;;;;;4992189;28;20049;-50
2022/06/05 00:13:37;;;;;;;7.85;2.17;;;24.00;99.90;;;;;;4992191;28;20026;-49
2022/06/05 00:16:04;;;;;;;6.63;1.05;;;24.00;99.90;;;;;;4992150;28;20031;-49
2022/06/05 00:18:35;;;;;;;6.07;1.02;;;24.00;99.90;;;;;;4992014;28;20120;-49
2022/06/05 00:21:01;;;;;;;4.05;0.80;;;24.00;99.90;;;;;;4992285;28;20482;-49
2022/06/05 00:23:27;;;;;;;6.50;1.25;;;24.00;99.90;;;;;;4991599;28;20031;-49
2022/06/05 00:26:06;;;;;;;3.33;1.00;;;24.00;99.90;;;;;;4992094;28;20390;-50
2022/06/05 00:29:03;;;;;;;6.50;1.80;;;24.00;99.90;;;;;;4990889;28;20582;-50
2022/06/05 00:31:52;;;;;;;9.05;1.48;;;24.00;99.90;;;;;;4960072;28;20100;-49
2022/06/05 00:34:18;;;;;;;4.00;1.17;;;23.90;99.90;;;;;;4990624;28;20058;-49
2022/06/05 00:37:00;;;;;;;3.92;1.40;;;23.90;99.90;;;;;;4991809;28;20045;-49
2022/06/05 00:40:00;;;;;;;4.35;1.30;;;23.80;99.90;;;;;;4991952;28;20068;-49
2022/06/05 00:42:30;;;;;;;5.00;1.25;;;23.80;99.90;;;;;;4991923;28;20121;-49
2022/06/05 00:44:59;;;;;;;5.88;1.60;;;23.80;99.90;;;;;;4991823;28;20026;-48
2022/06/05 00:47:32;;;;;;;4.63;1.23;;;23.80;99.90;;;;;;4991852;28;20386;-48
2022/06/05 00:50:08;;;;;;;6.95;2.33;;;23.80;99.90;;;;;;4991798;28;20105;-48
2022/06/05 00:52:36;;;;;;;7.45;1.27;;;23.80;99.90;;;;;;4991952;28;20030;-48
2022/06/05 00:55:02;;;;;;;5.82;1.63;;;23.80;99.90;;;;;;4990480;28;20526;-48
2022/06/05 00:57:31;;;;;;;5.13;1.48;;;23.80;99.90;;;;;;4991631;28;20078;-49
2022/06/05 00:59:59;;;;;;;6.82;1.42;;;23.80;99.90;;;;;;5017435;23;20476;-53
2022/06/05 01:02:25;;;;;;;7.47;1.48;;;23.70;99.90;;;;;;4953007;29;20028;-53
2022/06/05 01:04:51;;;;;;;4.65;1.27;;;23.70;99.90;;;;;;4967782;28;20090;-53
2022/06/05 01:07:20;;;;;;;7.28;1.40;;;23.60;99.90;;;;;;4953185;28;20023;-54
2022/06/05 01:09:48;;;;;;;8.50;1.50;;;23.70;99.90;;;;;;4953084;28;20179;-53
2022/06/05 01:12:27;;;;;;;;;;;23.60;99.90;;;;;;4952296;28;20041;-53
2022/06/05 01:15:11;;;;;;;6.95;1.23;;;23.50;99.90;;;;;;4952853;28;19902;-53
2022/06/05 01:17:51;;;;;;;8.27;1.23;;;23.50;99.90;;;;;;4953200;28;20396;-54
2022/06/05 01:20:58;;;;;;;5.55;1.40;;;23.50;99.90;;;;;;4952880;28;20027;-54
2022/06/05 01:23:46;;;;;;;9.48;3.38;;;23.40;99.90;;;;;;4945475;28;20479;-54
2022/06/05 01:26:32;;;;;;;4.32;1.35;;;23.40;99.90;;;;;;4953012;28;20031;-54
2022/06/05 01:29:20;;;;;;;6.63;1.10;;;23.40;99.90;;;;;;4952772;29;20439;-54
2022/06/05 01:31:57;;;;;;;10.13;1.52;;;23.30;99.90;;;;;;4953556;28;20495;-54
2022/06/05 01:34:35;;;;;;;9.82;1.88;;;23.30;99.90;;;;;;4952872;28;20114;-54
2022/06/05 01:37:14;;;;;;;5.30;1.10;;;23.30;99.90;;;;;;4954966;29;20470;-54
2022/06/05 01:40:05;;;;;;;6.30;1.13;;;23.20;99.90;;;;;;4956472;28;20051;-54
2022/06/05 01:42:38;;;;;;;9.88;1.42;;;23.10;99.90;;;;;;4953682;28;20385;-55
2022/06/05 01:45:29;;;;;;;5.32;1.15;;;23.10;99.90;;;;;;4956239;28;20391;-54
2022/06/05 01:47:58;;;;;;;5.97;1.10;;;23.10;99.90;;;;;;4953171;28;20038;-55
2022/06/05 01:51:06;;;;;;;9.68;1.67;;;23.00;99.90;;;;;;4955980;28;20062;-54
2022/06/05 01:53:41;;;;;;;9.38;1.40;;;22.90;99.90;;;;;;4956023;28;20061;-54
2022/06/05 01:56:14;;;;;;;8.20;1.35;;;22.90;99.90;;;;;;4956197;29;20026;-54
2022/06/05 01:58:45;;;;;;;4.68;1.00;;;22.90;99.90;;;;;;4956165;28;20415;-55
2022/06/05 02:01:17;;;;;;;7.40;1.60;;;22.90;99.90;;;;;;5010579;23;20131;-60
2022/06/05 02:03:48;;;;;;;6.88;1.10;;;22.80;99.90;;;;;;5012580;28;20030;-60
2022/06/05 02:06:21;;;;;;;4.72;1.85;;;22.80;99.90;;;;;;5013864;28;20097;-59
2022/06/05 02:08:51;;;;;;;4.50;1.25;;;22.80;99.90;;;;;;5013828;28;20032;-60
2022/06/05 02:11:20;;;;;;;7.72;1.75;;;22.80;99.90;;;;;;5013790;28;20052;-62
2022/06/05 02:13:47;;;;;;;9.25;1.63;;;22.90;99.90;;;;;;5013830;28;20485;-61
2022/06/05 02:16:13;;;;;;;5.05;1.42;;;22.80;99.90;;;;;;5013650;28;20030;-60
2022/06/05 02:18:39;;;;;;;4.80;1.40;;;22.90;99.90;;;;;;5012543;28;20081;-60
2022/06/05 02:21:05;;;;;;;7.70;1.75;;;22.90;99.90;;;;;;5013568;28;20053;-61
2022/06/05 02:23:36;;;;;;;7.25;1.80;;;22.90;99.90;;;;;;5013591;28;20050;-59
2022/06/05 02:26:04;;;;;;;5.65;1.40;;;22.90;99.90;;;;;;5012341;28;20123;-60
2022/06/05 02:28:30;;;;;;;8.75;1.90;;;22.90;99.90;;;;;;5013636;28;20032;-61
2022/06/05 02:31:14;;;;;;;4.50;1.23;;;22.90;99.90;;;;;;5013623;28;20065;-60
2022/06/05 02:34:08;;;;;;;5.22;1.67;;;22.90;99.90;;;;;;5013639;28;20094;-61
2022/06/05 02:36:51;;;;;;;4.80;1.52;;;22.90;99.90;;;;;;5013562;28;20658;-61
2022/06/05 02:39:23;;;;;;;6.65;1.23;;;22.90;99.90;;;;;;5013323;28;20062;-59
2022/06/05 02:42:00;;;;;;;5.47;1.45;;;22.90;99.90;;;;;;5013319;28;20493;-60
2022/06/05 02:44:52;;;;;;;5.18;1.20;;;22.90;99.90;;;;;;5013361;28;20071;-59
2022/06/05 02:47:31;;;;;;;5.93;1.70;;;22.90;99.90;;;;;;5013050;28;20022;-62
2022/06/05 02:50:17;;;;;;;4.63;1.63;;;22.90;99.90;;;;;;5013301;28;20022;-63
2022/06/05 02:52:42;;;;;;;4.38;1.13;;;22.90;99.90;;;;;;5013383;28;20096;-62
2022/06/05 02:55:17;;;;;;;12.23;2.30;;;22.90;99.90;;;;;;5013332;28;20077;-62
2022/06/05 02:57:44;;;;;;;6.07;1.20;;;22.80;99.90;;;;;;5013246;28;20521;-62
2022/06/05 03:00:14;;;;;;;6.32;1.90;;;22.80;99.90;;;;;;5013349;28;20528;-64
2022/06/05 03:05:25;;;;;;;4.82;1.23;;;22.90;99.90;;;;;;5013214;28;20397;-61
2022/06/05 03:07:50;;;;;;;6.15;1.25;;;22.90;99.90;;;;;;5012873;28;20036;-61
2022/06/05 03:10:18;;;;;;;7.18;1.73;;;22.90;99.90;;;;;;5011652;28;20482;-60
2022/06/05 03:12:44;;;;;;;6.88;1.98;;;22.90;99.90;;;;;;5013116;28;20022;-61
2022/06/05 03:15:10;;;;;;;6.25;1.67;;;22.90;99.90;;;;;;5012630;28;20049;-57
2022/06/05 03:17:36;;;;;;;3.95;1.30;;;22.90;99.90;;;;;;5012358;28;20164;-60
2022/06/05 03:20:03;;;;;;;4.75;1.52;;;22.90;99.90;;;;;;5011329;28;20038;-60
2022/06/05 03:22:29;;;;;;;8.57;1.35;;;22.90;99.90;;;;;;5012541;28;20045;-61
2022/06/05 03:24:55;;;;;;;4.25;0.95;;;22.90;99.90;;;;;;5012518;28;20061;-62
2022/06/05 03:27:21;;;;;;;4.75;0.98;;;22.80;99.90;;;;;;5012502;28;20556;-60
2022/06/05 03:29:48;;;;;;;5.38;1.00;;;22.80;99.90;;;;;;5012541;28;20073;-60
2022/06/05 03:32:14;;;;;;;8.48;1.77;;;22.80;99.90;;;;;;5012655;28;20014;-61
2022/06/05 03:34:39;;;;;;;9.00;1.65;;;22.80;99.90;;;;;;5012424;28;20033;-63
2022/06/05 03:37:05;;;;;;;5.85;1.63;;;22.80;99.90;;;;;;5012442;28;20033;-61
2022/06/05 03:39:34;;;;;;;7.65;1.70;;;22.80;99.90;;;;;;5012369;28;20505;-61
2022/06/05 03:42:00;;;;;;;9.68;1.20;;;22.80;99.90;;;;;;5012364;28;20026;-62
2022/06/05 03:44:26;;;;;;;7.60;1.50;;;22.80;99.90;;;;;;5012277;28;20026;-61
2022/06/05 03:46:52;;;;;;;5.35;1.48;;;22.80;99.90;;;;;;5012204;28;20026;-63
2022/06/05 03:49:18;;;;;;;4.97;0.95;;;22.80;99.90;;;;;;5012507;28;20022;-62
2022/06/05 03:51:47;;;;;;;6.30;1.00;;;22.70;99.90;;;;;;5012276;28;20101;-62
2022/06/05 03:54:13;;;;;;;8.27;1.25;;;22.70;99.90;;;;;;5010856;28;20048;-62
2022/06/05 03:56:40;;;;;;;6.80;1.73;;;22.70;99.90;;;;;;5011910;28;20026;-62
2022/06/05 03:59:05;;;;;;;5.60;1.67;;;22.70;99.90;;;;;;5010127;28;20507;-62
2022/06/05 04:01:31;;;;;;;7.78;1.60;;;22.70;99.90;;;;;;5012385;28;20046;-61
2022/06/05 04:03:58;;;;;;;5.45;1.35;;;22.70;99.90;;;;;;5012210;28;20026;-62
2022/06/05 04:06:27;;;;;;;6.43;1.35;;;22.70;99.90;;;;;;5010591;28;20393;-63
2022/06/05 04:08:57;;;;;;;8.48;1.40;;;22.70;99.90;;;;;;5010567;28;20030;-61
2022/06/05 04:11:23;;;;;;;6.43;1.98;;;22.70;99.90;;;;;;5011834;28;20025;-62
2022/06/05 04:13:50;;;;;;;7.07;1.95;;;22.70;99.90;;;;;;5011986;28;20022;-61
2022/06/05 04:16:18;;;;;;;4.30;1.30;;;22.70;99.90;;;;;;5012054;28;20041;-61
2022/06/05 04:18:43;;;;;;;;;;;22.70;99.90;;;;;;5011988;28;20036;-58
2022/06/05 04:21:18;;;;;;;7.38;1.88;;;22.70;99.90;;;;;;5011742;28;19909;-60
2022/06/05 04:23:44;;;;;;;4.70;1.50;;;22.70;99.90;;;;;;5011705;28;20048;-59
2022/06/05 04:26:13;;;;;;;10.32;1.45;;;22.60;99.90;;;;;;5011450;28;20018;-60
2022/06/05 04:28:39;;;;;;;3.42;1.25;;;22.60;99.90;;;;;;5011401;28;20474;-59
2022/06/05 04:31:16;;;;;;;4.72;1.00;;;22.60;99.90;;;;;;5011507;28;20033;-60
2022/06/05 04:33:42;;;;;;;5.90;1.98;;;22.60;99.90;;;;;;5011546;28;20365;-61
2022/06/05 04:36:08;;;;;;;4.03;1.35;;;22.60;99.90;;;;;;5011665;28;20025;-61
2022/06/05 04:38:33;;;;;;;5.40;1.40;;;22.60;99.90;;;;;;5011371;28;20057;-61
2022/06/05 04:40:59;;;;;;;5.93;1.70;;;22.50;99.90;;;;;;5011357;28;20022;-61
2022/06/05 04:43:25;;;;;;;5.57;0.95;;;22.50;99.90;;;;;;5011591;28;20034;-59
2022/06/05 04:45:51;;;;;;;8.25;1.60;;;22.50;99.90;;;;;;5011535;28;20022;-61
2022/06/05 04:48:16;;;;;;;4.45;1.27;;;22.60;99.90;;;;;;5011376;28;20053;-61
2022/06/05 04:50:42;;;;;;;3.30;1.40;;;22.60;99.90;;;;;;5011428;28;20634;-60
2022/06/05 04:53:08;;;;;;;9.55;4.72;;;22.60;99.90;;;;;;5010068;28;20450;-60
2022/06/05 04:55:37;;;;;;;9.52;2.70;;;22.50;99.90;;;;;;5011268;28;20030;-61
2022/06/05 04:58:04;;;;;;;7.03;2.42;;;22.60;99.90;;;;;;5011035;28;20080;-64
2022/06/05 05:00:30;;;;;;;8.88;2.63;;;22.60;99.90;;;;;;5011008;28;20050;-61
2022/06/05 05:02:56;;;;;;;7.22;2.20;;;22.50;99.90;;;;;;5011078;28;20025;-62
2022/06/05 05:05:21;;;;;;;8.25;1.90;;;22.50;99.90;;;;;;5011379;28;20170;-61
2022/06/05 05:07:47;;;;;;;8.00;1.33;;;22.50;99.90;;;;;;5009851;28;20069;-61
2022/06/05 05:10:14;;;;;;;6.15;1.55;;;22.50;99.90;;;;;;5014215;28;20028;-62
2022/06/05 05:12:40;;;;;;;6.03;1.75;;;22.50;99.90;;;;;;5015011;28;20029;-62
2022/06/05 05:15:08;;;;;;;4.67;1.60;;;22.50;99.90;;;;;;5014991;28;20025;-61
2022/06/05 05:17:33;;;;;;;3.05;1.13;;;22.50;99.90;;;;;;5014859;28;20283;-62
2022/06/05 05:19:59;;;;;;;9.95;1.67;;;22.50;99.90;;;;;;5014945;28;20100;-61
2022/06/05 05:22:25;;;;;;;2.72;1.50;;;22.50;99.90;;;;;;5013692;28;20076;-60
2022/06/05 05:24:51;;;;;;;5.60;1.50;;;22.50;99.90;;;;;;5015170;28;20094;-60
2022/06/05 05:27:18;;;;;;;3.90;2.03;;;22.50;99.90;;;;;;5014780;28;20022;-60
2022/06/05 05:29:44;;;;;;;4.28;0.93;;;22.50;99.90;;;;;;5014875;28;20040;-61
2022/06/05 05:32:10;;;;;;;5.80;0.93;;;22.60;99.90;;;;;;5014736;28;20481;-61
2022/06/05 05:34:37;;;;;;;2.95;1.00;;;22.60;99.90;;;;;;5014648;28;20104;-61
2022/06/05 05:37:03;;;;;;;7.45;1.25;;;22.60;99.90;;;;;;5014669;28;20006;-62
2022/06/05 05:42:14;;;;;;;7.95;1.35;;;22.60;99.90;;;;;;5014491;28;20037;-61
2022/06/05 05:44:46;;;;;;;9.27;1.70;;;22.70;99.90;;;;;;5014507;28;20424;-61
2022/06/05 05:47:13;;;;;;;6.32;1.17;;;22.70;99.90;;;;;;5014483;28;20493;-61
2022/06/05 05:49:39;;;;;;;7.18;1.17;;;22.70;99.90;;;;;;5014526;28;20518;-62
2022/06/05 05:52:06;;;;;;;7.57;1.65;;;22.70;99.90;;;;;;5014387;28;20026;-62
2022/06/05 05:54:34;;;;;;;7.55;1.48;;;22.70;99.90;;;;;;5014222;28;20037;-60
2022/06/05 05:57:00;;;;;;;10.35;2.08;;;22.70;99.90;;;;;;5014400;28;20458;-59
2022/06/05 05:59:25;;;;;;;20.02;2.40;;;22.60;99.90;;;;;;5014392;28;20416;-59
2022/06/05 06:01:52;;;;;;;5.32;1.08;;;22.40;99.90;;;;;;5014172;28;20045;-59
2022/06/05 06:04:17;;;;;;;6.63;1.55;;;22.30;99.90;;;;;;5014199;28;20034;-59
2022/06/05 06:06:45;;;;;;;4.35;0.93;;;22.30;99.90;;;;;;5014056;28;20157;-58
2022/06/05 06:09:12;;;;;;;14.60;7.22;;;22.30;99.90;;;;;;5012644;28;20061;-60
2022/06/05 06:11:38;;;;;;;10.88;4.88;;;22.30;99.90;;;;;;5013894;28;20359;-62
2022/06/05 06:14:04;;;;;;;5.82;1.38;;;22.30;99.90;;;;;;5013930;28;20097;-62
2022/06/05 06:16:30;;;;;;;10.60;2.08;;;22.30;99.90;;;;;;5013902;28;20449;-58
2022/06/05 06:18:56;;;;;;;6.78;2.53;;;22.30;99.90;;;;;;5013886;28;20038;-61
2022/06/05 06:21:23;;;;;;;5.30;1.75;;;22.30;99.90;;;;;;5013040;28;20092;-58
2022/06/05 06:23:49;;;;;;;6.60;1.40;;;22.40;99.90;;;;;;5013762;28;20036;-61
2022/06/05 06:26:15;;;;;;;10.65;2.42;;;22.50;99.90;;;;;;5013514;28;20034;-61
2022/06/05 06:28:41;;;;;;;6.03;1.48;;;22.60;99.90;;;;;;5013640;28;20394;-62
2022/06/05 06:31:13;;;;;;;3.10;1.05;;;22.60;99.90;;;;;;5013523;28;20033;-61
2022/06/05 06:33:40;;;;;;;4.22;1.20;;;22.60;99.90;;;;;;5013459;28;20541;-61
2022/06/05 06:36:09;;;;;;;4.75;1.45;;;22.60;99.90;;;;;;5013421;28;20024;-61
2022/06/05 06:38:35;;;;;;;5.03;1.33;;;22.60;99.90;;;;;;5013513;28;20478;-60
2022/06/05 06:41:06;;;;;;;12.38;1.73;;;22.60;99.90;;;;;;5013357;28;20037;-60
2022/06/05 06:43:34;;;;;;;6.00;1.23;;;22.70;99.90;;;;;;5013399;28;20041;-61
2022/06/05 06:46:00;;;;;;;;;;;22.70;99.90;;;;;;5013996;28;20022;-61
2022/06/05 06:48:26;;;;;;;4.00;1.50;;;22.80;99.90;;;;;;5013323;28;19916;-61
2022/06/05 06:50:54;;;;;;;7.70;1.27;;;22.90;99.90;;;;;;5013304;28;20106;-61
2022/06/05 06:53:20;;;;;;;4.90;1.05;;;22.90;99.90;;;;;;5013290;28;20385;-61
2022/06/05 06:55:46;;;;;;;14.65;1.98;;;22.90;99.90;;;;;;5011575;28;20033;-62
2022/06/05 06:58:12;;;;;;;7.72;1.45;;;22.80;99.90;;;;;;5013284;28;20436;-62
2022/06/05 07:00:38;;;;;;;5.95;1.48;;;22.80;99.90;;;;;;5012927;28;20177;-61
2022/06/05 07:03:04;;;;;;;2.63;0.88;;;22.80;99.90;;;;;;5013004;28;20033;-62
2022/06/05 07:05:30;;;;;;;8.02;1.65;;;22.70;99.90;;;;;;5013320;28;20022;-62
2022/06/05 07:07:56;;;;;;;6.07;1.40;;;22.70;99.90;;;;;;5011399;28;20521;-61
2022/06/05 07:10:22;;;;;;;4.35;1.20;;;22.80;99.90;;;;;;5012884;28;20153;-62
2022/06/05 07:12:48;;;;;;;7.25;2.38;;;22.90;99.90;;;;;;5012844;28;20381;-61
2022/06/05 07:15:14;;;;;;;7.05;1.40;;;23.00;99.90;;;;;;5012779;28;20026;-62
2022/06/05 07:17:40;;;;;;;2.85;1.20;;;23.10;99.90;;;;;;5012725;28;20089;-60
2022/06/05 07:20:07;;;;;;;4.82;1.50;;;23.20;99.90;;;;;;5011605;28;20485;-60
2022/06/05 07:22:33;;;;;;;9.00;1.70;;;23.30;99.90;;;;;;5013007;28;20417;-59
2022/06/05 07:24:59;;;;;;;7.72;2.53;;;23.30;99.90;;;;;;5012661;28;20426;-60
2022/06/05 07:27:26;;;;;;;7.95;1.48;;;23.30;99.90;;;;;;5012602;28;20498;-59
2022/06/05 07:29:52;;;;;;;7.97;2.30;;;23.30;99.90;;;;;;5012518;28;20060;-59
2022/06/05 07:32:19;;;;;;;5.50;1.52;;;23.30;99.90;;;;;;5012386;28;20022;-59
2022/06/05 07:34:44;;;;;;;3.97;1.27;;;23.30;99.90;;;;;;5012467;28;20022;-59
2022/06/05 07:37:10;;;;;;;9.57;1.13;;;23.40;99.90;;;;;;5012380;28;20363;-59
2022/06/05 07:39:36;;;;;;;7.20;1.80;;;23.30;99.90;;;;;;5012008;28;20129;-59
2022/06/05 07:42:03;;;;;;;6.95;1.63;;;23.40;99.90;;;;;;5012617;28;20389;-59
2022/06/05 07:44:28;;;;;;;8.30;1.75;;;23.40;99.90;;;;;;5012363;28;20049;-58
2022/06/05 07:46:54;;;;;;;7.55;1.48;;;23.40;99.90;;;;;;5012337;28;20064;-58
2022/06/05 07:49:20;;;;;;;8.63;1.10;;;23.40;99.90;;;;;;5012165;28;20026;-58
2022/06/05 07:54:31;;;;;;;4.85;1.42;;;23.40;99.90;;;;;;5012508;28;20037;-62
2022/06/05 07:56:59;;;;;;;7.25;2.25;;;23.40;99.90;;;;;;5012000;28;20030;-60
2022/06/05 07:59:27;;;;;;;9.02;1.48;;;23.50;99.90;;;;;;5011957;28;20034;-60
2022/06/05 08:01:53;;;;;;;3.60;0.77;;;23.50;99.90;;;;;;5011797;28;20034;-63
2022/06/05 08:04:18;;;;;;;6.47;1.35;;;23.50;99.90;;;;;;5011839;28;20026;-62
2022/06/05 08:06:44;;;;;;;4.82;1.30;;;23.60;99.90;;;;;;5011964;28;20168;-61
2022/06/05 08:09:10;;;;;;;6.63;1.77;;;23.70;99.90;;;;;;5011733;28;20030;-62
2022/06/05 08:11:36;;;;;;;4.70;1.27;;;23.70;99.90;;;;;;5011411;28;20084;-58
2022/06/05 08:14:03;;;;;;;5.72;1.52;;;23.80;99.90;;;;;;5011717;28;20029;-62
2022/06/05 08:16:29;;;;;;;5.70;2.38;;;23.80;99.90;;;;;;5011745;28;20386;-68
2022/06/05 08:18:55;;;;;;;9.82;2.17;;;23.90;99.90;;;;;;5011510;28;20033;-63
2022/06/05 08:21:25;;;;;;;8.00;1.88;;;24.00;99.90;;;;;;5011556;28;20494;-61
2022/06/05 08:23:51;;;;;;;9.27;1.70;;;24.10;99.90;;;;;;5011567;28;20087;-62
2022/06/05 08:26:17;;;;;;;8.10;4.70;;;24.10;99.90;;;;;;5011382;28;20120;-61
2022/06/05 08:28:43;;;;;;;3.72;1.88;;;24.20;99.90;;;;;;5011587;28;20145;-62
2022/06/05 08:31:09;;;;;;;14.93;5.00;;;24.20;99.90;;;;;;5011454;28;20076;-62
2022/06/05 08:33:35;;;;;;;8.07;3.65;;;24.20;99.90;;;;;;5011591;28;20552;-62
2022/06/05 08:36:01;;;;;;;7.00;2.38;;;24.20;99.90;;;;;;5011444;28;20018;-62
2022/06/05 08:41:32;;;;;;;5.65;2.15;;;24.20;99.90;;;;;;5011478;28;20029;-62
2022/06/05 08:44:04;;;;;;;7.28;1.58;;;24.30;99.90;;;;;;5013832;28;20037;-62
2022/06/05 08:46:49;;;;;;;4.65;1.35;;;24.30;99.90;;;;;;5017688;28;20026;-62
2022/06/05 08:49:47;;;;;;;5.55;2.92;;;24.30;99.90;;;;;;5017606;28;20026;-61
2022/06/05 08:52:25;;;;;;;10.60;1.60;;;24.40;99.90;;;;;;5017820;28;20029;-62
2022/06/05 08:54:54;;;;;;;4.93;1.60;;;24.40;99.90;;;;;;5017740;28;20018;-63
2022/06/05 08:57:34;;;;;;;8.07;1.77;;;24.40;99.90;;;;;;5017726;28;20452;-62
2022/06/05 09:00:09;;;;;;;5.15;1.52;;;24.40;99.90;;;;;;5017603;28;20132;-62
2022/06/05 09:02:53;;;;;;;5.68;1.45;;;24.50;99.90;;;;;;5018008;28;20068;-62
2022/06/05 09:05:24;;;;;;;5.43;1.67;;;24.60;99.90;;;;;;5016486;28;20026;-62
2022/06/05 09:07:57;;;;;;;3.53;1.50;;;24.60;99.90;;;;;;5017725;28;20025;-62
2022/06/05 09:10:25;;;;;;;2.63;0.90;;;24.70;99.90;;;;;;5017723;28;20021;-62
2022/06/05 09:12:57;;;;;;;4.50;1.10;;;24.70;99.90;;;;;;5017540;28;20443;-63
2022/06/05 09:15:55;;;;;;;8.18;1.40;;;24.80;99.90;;;;;;5017749;28;20022;-63
2022/06/05 09:18:24;;;;;;;8.50;1.33;;;24.80;99.90;;;;;;5017472;28;20033;-62
2022/06/05 09:20:55;;;;;;;17.10;2.72;;;24.70;99.90;;;;;;5017505;28;20025;-63
2022/06/05 09:23:36;;;;;;;10.82;1.90;;;24.80;99.90;;;;;;5017876;28;20101;-63
2022/06/05 09:26:21;;;;;;;4.32;1.13;;;24.80;99.90;;;;;;5016330;28;20429;-61
2022/06/05 09:29:14;;;;;;;5.20;1.60;;;24.70;99.90;;;;;;5017319;28;20068;-62
2022/06/05 09:32:09;;;;;;;5.82;2.10;;;24.50;99.90;;;;;;5017090;28;20026;-63
2022/06/05 09:34:46;;;;;;;5.45;1.55;;;24.50;99.90;;;;;;5017341;28;20021;-63
2022/06/05 09:37:42;;;;;;;7.32;1.88;;;24.40;99.90;;;;;;5017219;28;20485;-63
2022/06/05 09:40:49;;;;;;;16.02;10.68;;;24.40;99.90;;;;;;5017389;28;20034;-63
2022/06/05 09:43:27;;;;;;;6.80;2.03;;;24.40;99.90;;;;;;4997147;28;20038;-63
2022/06/05 09:46:08;;;;;;;;;;;24.50;99.90;;;;;;5017698;28;20034;-62
2022/06/05 09:48:52;;;;;;;7.68;1.92;;;24.40;99.90;;;;;;5017506;28;19959;-62
2022/06/05 09:51:19;;;;;;;9.30;2.60;;;24.40;99.90;;;;;;5017343;28;20025;-63
2022/06/05 09:54:07;;;;;;;7.87;3.93;;;24.50;99.90;;;;;;5017348;28;20029;-63
2022/06/05 10:00:15;;;;;;;13.77;9.65;;;24.50;99.90;;;;;;5014044;28;20057;-62
2022/06/05 10:02:43;;;;;;;8.55;4.35;;;24.60;99.90;;;;;;5014300;28;20101;-62
2022/06/05 10:05:33;;;;;;;7.38;4.20;;;24.60;99.90;;;;;;5014227;28;20030;-62
2022/06/05 10:08:22;;;;;;;6.47;1.52;;;24.70;99.90;;;;;;5013797;28;20057;-62
2022/06/05 10:10:50;;;;;;;6.72;1.73;;;24.70;99.90;;;;;;5014188;28;20030;-62
2022/06/05 10:13:28;;;;;;;9.18;1.98;;;24.70;99.90;;;;;;5014063;28;20388;-62
2022/06/05 10:16:10;;;;;;;6.03;2.10;;;24.70;99.90;;;;;;5013939;28;20033;-62
2022/06/05 10:18:47;;;;;;;9.30;5.22;;;24.70;99.90;;;;;;5013727;28;20045;-62
2022/06/05 10:21:14;;;;;;;6.75;2.50;;;24.80;99.90;;;;;;5012603;28;20042;-62
2022/06/05 10:23:49;;;;;;;;;;;24.90;99.90;;;;;;5014464;28;20033;-62
2022/06/05 10:26:29;;;;;;;6.97;2.88;;;24.80;99.90;;;;;;5013713;28;19913;-62
2022/06/05 10:29:23;;;;;;;7.00;3.10;;;24.90;99.90;;;;;;5013721;28;20018;-62
2022/06/05 10:32:23;;;;;;;6.95;2.38;;;24.90;99.90;;;;;;5013535;28;20022;-61
2022/06/05 10:34:59;;;;;;;15.77;8.82;;;24.90;99.90;;;;;;5006276;28;20470;-62
2022/06/05 10:37:29;;;;;;;12.18;6.60;;;25.00;99.90;;;;;;5013334;28;20030;-62
2022/06/05 10:40:04;;;;;;;7.38;4.32;;;25.00;99.90;;;;;;5013238;28;20030;-62
2022/06/05 10:42:52;;;;;;;5.22;2.97;;;25.00;99.90;;;;;;5013273;28;20045;-62
2022/06/05 10:45:39;;;;;;;5.07;2.70;;;25.00;99.90;;;;;;5013203;28;20104;-63
2022/06/05 10:48:32;;;;;;;9.35;5.45;;;25.10;99.90;;;;;;5011857;28;20033;-62
2022/06/05 10:51:03;;;;;;;5.97;1.70;;;25.10;99.90;;;;;;5013099;28;20061;-62
2022/06/05 10:53:44;;;;;;;9.57;4.57;;;25.20;99.90;;;;;;5012943;28;20026;-62
2022/06/05 10:56:13;;;;;;;8.07;3.97;;;25.20;99.90;;;;;;5012925;28;20080;-62
2022/06/05 10:59:05;;;;;;;5.70;2.60;;;25.30;99.90;;;;;;5013055;28;20034;-62
2022/06/05 11:01:48;;;;;;;6.00;1.60;;;25.30;99.90;;;;;;5012740;28;20383;-62
2022/06/05 11:04:45;;;;;;;7.47;1.80;;;25.40;99.90;;;;;;5013037;28;20377;-63
2022/06/05 11:07:32;;;;;;;7.97;1.92;;;25.40;99.90;;;;;;5012342;28;20025;-62
2022/06/05 11:10:05;;;;;;;;;;;25.50;99.90;;;;;;5012962;28;20232;-62
2022/06/05 11:16:01;;;;;;;4.13;1.33;;;25.50;99.90;;;;;;5012618;28;20120;-62
2022/06/05 11:18:38;;;;;;;6.70;1.58;;;25.40;99.90;;;;;;5012429;28;20030;-62
2022/06/05 11:21:04;;;;;;;;;;;25.40;99.90;;;;;;5012796;28;20030;-62
2022/06/05 11:23:41;;;;;;;6.45;1.73;;;25.50;99.90;;;;;;5012524;28;20356;-62
2022/06/05 11:26:31;;;;;;;5.37;1.33;;;25.40;99.90;;;;;;5012619;28;20038;-62
2022/06/05 11:29:25;;;;;;;6.40;1.38;;;25.40;99.90;;;;;;5012445;28;20486;-62
2022/06/05 11:32:09;;;;;;;4.88;1.67;;;25.50;99.90;;;;;;5012451;28;20064;-63
2022/06/05 11:34:51;;;;;;;9.50;2.25;;;25.50;99.90;;;;;;5012323;28;20054;-63
2022/06/05 11:37:16;;;;;;;6.18;1.67;;;25.50;99.90;;;;;;5012386;28;20024;-63
2022/06/05 11:39:48;;;;;;;8.45;2.47;;;25.60;99.90;;;;;;5012022;28;20117;-62
2022/06/05 11:42:37;;;;;;;5.28;2.33;;;25.60;99.90;;;;;;5012133;28;20439;-62
2022/06/05 11:45:36;;;;;;;9.43;5.82;;;25.50;99.90;;;;;;5008747;28;20042;-62
2022/06/05 11:48:12;;;;;;;7.45;5.35;;;25.50;99.90;;;;;;5012155;28;20101;-62
2022/06/05 11:50:52;;;;;;;9.30;4.85;;;25.50;99.90;;;;;;5012028;28;20026;-62
2022/06/05 11:53:44;;;;;;;8.27;5.13;;;25.50;99.90;;;;;;5012176;28;20021;-62
2022/06/05 11:56:25;;;;;;;8.00;3.92;;;25.50;99.90;;;;;;5010813;28;20092;-62
2022/06/05 11:59:27;;;;;;;11.00;5.38;;;25.50;99.90;;;;;;5011949;28;20363;-62
2022/06/05 12:02:31;;;;;;;8.57;3.67;;;25.60;99.90;;;;;;5003149;28;20042;-62
2022/06/05 12:05:18;;;;;;;9.15;2.72;;;25.60;99.90;;;;;;5011622;28;20543;-62
2022/06/05 12:07:46;;;;;;;;;;;25.60;99.90;;;;;;5012127;28;20030;-62
2022/06/05 12:10:26;;;;;;;12.02;7.28;;;25.60;99.90;;;;;;5011721;28;19909;-61
2022/06/05 12:13:02;;;;;;;7.78;3.72;;;25.70;99.90;;;;;;5011735;28;20072;-62
2022/06/05 12:15:56;;;;;;;10.55;6.45;;;25.70;99.90;;;;;;5011796;28;20076;-62
2022/06/05 12:18:31;;;;;;;8.85;3.90;;;25.70;99.90;;;;;;5010713;28;20034;-62
2022/06/05 12:21:24;;;;;;;7.50;2.53;;;25.70;99.90;;;;;;5011590;28;20454;-62
2022/06/05 12:24:29;;;;;;;5.82;3.92;;;25.70;99.90;;;;;;5011673;28;20093;-62
2022/06/05 12:27:00;;;;;;;8.93;4.68;;;25.70;99.90;;;;;;5006547;28;20037;-62
2022/06/05 12:29:26;;;;;;;11.45;6.55;;;25.70;99.90;;;;;;5011358;28;20578;-62
2022/06/05 12:32:02;;;;;;;5.93;2.85;;;25.70;99.90;;;;;;5011787;28;20109;-62
2022/06/05 12:34:38;;;;;;;4.53;2.55;;;25.80;99.90;;;;;;5011453;28;20044;-62
2022/06/05 12:37:21;;;;;;;9.73;4.78;;;25.80;99.90;;;;;;5011548;28;20033;-62
2022/06/05 12:39:51;;;;;;;7.18;3.03;;;25.80;99.90;;;;;;5011257;28;20030;-63
2022/06/05 12:42:44;;;;;;;7.53;3.40;;;25.90;99.90;;;;;;5011295;28;20026;-63
2022/06/05 12:45:22;;;;;;;7.63;4.25;;;25.90;99.90;;;;;;5011064;28;20030;-64
2022/06/05 12:48:00;;;;;;;7.05;2.90;;;25.90;99.90;;;;;;5009943;28;20030;-63
2022/06/05 12:51:03;;;;;;;10.02;5.22;;;25.90;99.90;;;;;;5011129;28;20536;-63
2022/06/05 12:53:35;;;;;;;11.93;6.20;;;26.00;99.90;;;;;;5010059;28;20029;-63
2022/06/05 12:56:07;;;;;;;11.55;5.47;;;26.00;99.90;;;;;;5011215;28;20034;-63
2022/06/05 12:58:33;;;;;;;10.55;4.25;;;25.90;99.90;;;;;;5011151;28;20616;-63
2022/06/05 13:01:07;;;;;;;7.28;3.83;;;26.00;99.90;;;;;;5010956;28;20078;-63
2022/06/05 13:04:00;;;;;;;5.43;2.72;;;26.00;99.90;;;;;;5011144;28;20446;-63
2022/06/05 13:06:38;;;;;;;5.82;3.10;;;26.10;99.90;;;;;;5011059;28;20033;-64
2022/06/05 13:09:23;;;;;;;;;;;26.10;99.90;;;;;;5011542;28;20060;-62
2022/06/05 13:12:23;;;;;;;6.80;2.80;;;26.10;99.90;;;;;;4979473;28;19913;-63
2022/06/05 13:14:58;;;;;;;10.07;3.75;;;26.20;99.90;;;;;;5009694;28;20033;-63
2022/06/05 13:17:56;;;;;;;11.27;3.60;;;26.10;99.90;;;;;;5011197;28;20018;-63
2022/06/05 13:21:13;;;;;;;4.28;2.33;;;26.20;99.90;;;;;;5008159;28;20045;-63
2022/06/05 13:24:02;;;;;;;11.32;4.22;;;26.20;99.90;;;;;;5001532;28;20057;-63
2022/06/05 13:26:45;;;;;;;6.03;2.35;;;26.30;99.90;;;;;;5010883;28;20037;-63
2022/06/05 13:29:11;;;;;;;7.40;2.42;;;26.30;99.90;;;;;;5010950;28;20030;-63
2022/06/05 13:32:18;;;;;;;7.53;2.58;;;26.40;99.90;;;;;;5013207;28;20113;-63
2022/06/05 13:34:55;;;;;;;10.07;4.63;;;26.40;99.90;;;;;;5013450;28;20049;-63
2022/06/05 13:37:26;;;;;;;;;;;26.40;99.90;;;;;;5013903;28;20034;-63
2022/06/05 13:40:04;;;;;;;10.32;3.67;;;26.40;99.90;;;;;;5014819;28;19913;-62